sensor_id;sensor_type;location;lat;lon;timestamp;temperature;humidity
1878;DHT22;939;51.426;6.972;2023-04-03T00:00:01;4.20;99.90
1878;DHT22;939;51.426;6.972;2023-04-03T00:02:28;4.10;99.90
1878;DHT22;939;51.426;6.972;2023-04-03T00:04:55;4.30;99.90
1878;DHT22;939;51.426;6.972;2023-04-03T00:07:25;4.30;99.90
1878;DHT22;939;51.426;6.972;2023-04-03T00:09:53;4.20;99.90
1878;DHT22;939;51.426;6.972;2023-04-03T00:12:20;4.30;99.90
1878;DHT22;939;51.426;6.972;2023-04-03T00:14:46;4.30;99.90
1878;DHT22;939;51.426;6.972;2023-04-03T00:17:13;4.40;99.90
1878;DHT22;939;51.426;6.972;2023-04-03T00:19:45;4.40;99.90
1878;DHT22;939;51.426;6.972;2023-04-03T00:22:13;4.40;99.90
1878;DHT22;939;51.426;6.972;2023-04-03T00:24:41;4.40;99.90
1878;DHT22;939;51.426;6.972;2023-04-03T00:27:08;4.30;99.90
1878;DHT22;939;51.426;6.972;2023-04-03T00:29:38;4.30;99.90
1878;DHT22;939;51.426;6.972;2023-04-03T00:32:05;4.30;99.90
1878;DHT22;939;51.426;6.972;2023-04-03T00:34:35;4.40;99.90
1878;DHT22;939;51.426;6.972;2023-04-03T00:37:03;4.40;99.90
1878;DHT22;939;51.426;6.972;2023-04-03T00:39:30;4.40;99.90
1878;DHT22;939;51.426;6.972;2023-04-03T00:42:02;4.40;99.90
1878;DHT22;939;51.426;6.972;2023-04-03T00:47:37;4.30;99.90
1878;DHT22;939;51.426;6.972;2023-04-03T00:50:06;4.30;99.90
1878;DHT22;939;51.426;6.972;2023-04-03T00:52:37;4.30;99.90
1878;DHT22;939;51.426;6.972;2023-04-03T00:55:13;4.30;99.90
1878;DHT22;939;51.426;6.972;2023-04-03T00:57:55;4.20;99.90
1878;DHT22;939;51.426;6.972;2023-04-03T01:00:23;4.20;99.90
1878;DHT22;939;51.426;6.972;2023-04-03T01:02:55;4.20;99.90
1878;DHT22;939;51.426;6.972;2023-04-03T01:05:27;4.20;99.90
1878;DHT22;939;51.426;6.972;2023-04-03T01:08:12;4.20;99.90
1878;DHT22;939;51.426;6.972;2023-04-03T01:10:41;4.20;99.90
1878;DHT22;939;51.426;6.972;2023-04-03T01:13:24;4.10;99.90
1878;DHT22;939;51.426;6.972;2023-04-03T01:15:52;4.10;99.90
1878;DHT22;939;51.426;6.972;2023-04-03T01:18:21;4.10;99.90
1878;DHT22;939;51.426;6.972;2023-04-03T01:24:12;4.10;99.90
1878;DHT22;939;51.426;6.972;2023-04-03T01:26:41;4.10;99.90
1878;DHT22;939;51.426;6.972;2023-04-03T01:29:12;4.00;99.90
1878;DHT22;939;51.426;6.972;2023-04-03T01:31:50;4.00;99.90
1878;DHT22;939;51.426;6.972;2023-04-03T01:34:17;4.00;99.90
1878;DHT22;939;51.426;6.972;2023-04-03T01:36:54;4.10;99.90
1878;DHT22;939;51.426;6.972;2023-04-03T01:39:21;4.20;99.90
1878;DHT22;939;51.426;6.972;2023-04-03T01:41:52;4.10;99.90
1878;DHT22;939;51.426;6.972;2023-04-03T01:44:21;4.10;99.90
1878;DHT22;939;51.426;6.972;2023-04-03T01:46:49;4.10;99.90
1878;DHT22;939;51.426;6.972;2023-04-03T01:49:16;4.10;99.90
1878;DHT22;939;51.426;6.972;2023-04-03T01:51:43;4.10;99.90
1878;DHT22;939;51.426;6.972;2023-04-03T01:54:12;4.10;99.90
1878;DHT22;939;51.426;6.972;2023-04-03T01:56:40;4.10;99.90
1878;DHT22;939;51.426;6.972;2023-04-03T01:59:07;4.20;99.90
1878;DHT22;939;51.426;6.972;2023-04-03T02:01:35;4.20;99.90
1878;DHT22;939;51.426;6.972;2023-04-03T02:04:11;4.20;99.90
1878;DHT22;939;51.426;6.972;2023-04-03T02:06:39;4.20;99.90
1878;DHT22;939;51.426;6.972;2023-04-03T02:09:06;4.20;99.90
1878;DHT22;939;51.426;6.972;2023-04-03T02:11:36;4.20;99.90
1878;DHT22;939;51.426;6.972;2023-04-03T02:14:03;4.30;99.90
1878;DHT22;939;51.426;6.972;2023-04-03T02:16:30;4.30;99.90
1878;DHT22;939;51.426;6.972;2023-04-03T02:18:57;4.30;99.90
1878;DHT22;939;51.426;6.972;2023-04-03T02:21:26;4.30;99.90
1878;DHT22;939;51.426;6.972;2023-04-03T02:23:55;4.30;99.90
1878;DHT22;939;51.426;6.972;2023-04-03T02:26:23;4.30;99.90
1878;DHT22;939;51.426;6.972;2023-04-03T02:28:58;4.30;99.90
1878;DHT22;939;51.426;6.972;2023-04-03T02:31:25;4.30;99.90
1878;DHT22;939;51.426;6.972;2023-04-03T02:33:56;4.30;99.90
1878;DHT22;939;51.426;6.972;2023-04-03T02:36:30;4.30;99.90
1878;DHT22;939;51.426;6.972;2023-04-03T02:39:00;4.30;99.90
1878;DHT22;939;51.426;6.972;2023-04-03T02:41:27;4.40;99.90
1878;DHT22;939;51.426;6.972;2023-04-03T02:44:03;4.30;99.90
1878;DHT22;939;51.426;6.972;2023-04-03T02:46:30;4.30;99.90
1878;DHT22;939;51.426;6.972;2023-04-03T02:48:59;4.40;99.90
1878;DHT22;939;51.426;6.972;2023-04-03T02:51:27;4.30;99.90
1878;DHT22;939;51.426;6.972;2023-04-03T02:53:54;4.30;99.90
1878;DHT22;939;51.426;6.972;2023-04-03T02:56:21;4.40;99.90
1878;DHT22;939;51.426;6.972;2023-04-03T02:58:48;4.30;99.90
1878;DHT22;939;51.426;6.972;2023-04-03T03:01:15;4.30;99.90
1878;DHT22;939;51.426;6.972;2023-04-03T03:03:43;4.30;99.90
1878;DHT22;939;51.426;6.972;2023-04-03T03:06:11;4.40;99.90
1878;DHT22;939;51.426;6.972;2023-04-03T03:08:42;4.40;99.90
1878;DHT22;939;51.426;6.972;2023-04-03T03:11:11;4.30;99.90
1878;DHT22;939;51.426;6.972;2023-04-03T03:13:40;4.30;99.90
1878;DHT22;939;51.426;6.972;2023-04-03T03:16:08;4.30;99.90
1878;DHT22;939;51.426;6.972;2023-04-03T03:18:39;4.30;99.90
1878;DHT22;939;51.426;6.972;2023-04-03T03:21:06;4.40;99.90
1878;DHT22;939;51.426;6.972;2023-04-03T03:23:33;4.30;99.90
1878;DHT22;939;51.426;6.972;2023-04-03T03:26:14;4.30;99.90
1878;DHT22;939;51.426;6.972;2023-04-03T03:28:51;4.30;99.90
1878;DHT22;939;51.426;6.972;2023-04-03T03:31:21;4.30;99.90
1878;DHT22;939;51.426;6.972;2023-04-03T03:33:58;4.30;99.90
1878;DHT22;939;51.426;6.972;2023-04-03T03:36:26;4.30;99.90
1878;DHT22;939;51.426;6.972;2023-04-03T03:38:52;4.30;99.90
1878;DHT22;939;51.426;6.972;2023-04-03T03:41:21;4.30;99.90
1878;DHT22;939;51.426;6.972;2023-04-03T03:43:48;4.40;99.90
1878;DHT22;939;51.426;6.972;2023-04-03T03:46:15;4.40;99.90
1878;DHT22;939;51.426;6.972;2023-04-03T03:48:42;4.40;99.90
1878;DHT22;939;51.426;6.972;2023-04-03T03:51:09;4.40;99.90
1878;DHT22;939;51.426;6.972;2023-04-03T03:53:36;4.40;99.90
1878;DHT22;939;51.426;6.972;2023-04-03T03:56:03;4.40;99.90
1878;DHT22;939;51.426;6.972;2023-04-03T03:58:32;4.40;99.90
1878;DHT22;939;51.426;6.972;2023-04-03T04:01:00;4.40;99.90
1878;DHT22;939;51.426;6.972;2023-04-03T04:03:27;4.30;99.90
1878;DHT22;939;51.426;6.972;2023-04-03T04:05:54;4.30;99.90
1878;DHT22;939;51.426;6.972;2023-04-03T04:08:21;4.30;99.90
1878;DHT22;939;51.426;6.972;2023-04-03T04:10:48;4.30;99.90
1878;DHT22;939;51.426;6.972;2023-04-03T04:13:15;4.30;99.90
1878;DHT22;939;51.426;6.972;2023-04-03T04:15:43;4.30;99.90
1878;DHT22;939;51.426;6.972;2023-04-03T04:18:10;4.30;99.90
1878;DHT22;939;51.426;6.972;2023-04-03T04:20:37;4.30;99.90
1878;DHT22;939;51.426;6.972;2023-04-03T04:23:04;4.30;99.90
1878;DHT22;939;51.426;6.972;2023-04-03T04:25:37;4.20;99.90
1878;DHT22;939;51.426;6.972;2023-04-03T04:28:05;4.20;99.90
1878;DHT22;939;51.426;6.972;2023-04-03T04:30:31;4.30;99.90
1878;DHT22;939;51.426;6.972;2023-04-03T04:33:00;4.30;99.90
1878;DHT22;939;51.426;6.972;2023-04-03T04:35:26;4.30;99.90
1878;DHT22;939;51.426;6.972;2023-04-03T04:37:53;4.30;99.90
1878;DHT22;939;51.426;6.972;2023-04-03T04:40:20;4.40;99.90
1878;DHT22;939;51.426;6.972;2023-04-03T04:42:47;4.40;99.90
1878;DHT22;939;51.426;6.972;2023-04-03T04:45:14;4.40;99.90
1878;DHT22;939;51.426;6.972;2023-04-03T04:47:41;4.50;99.90
1878;DHT22;939;51.426;6.972;2023-04-03T04:50:10;4.40;99.90
1878;DHT22;939;51.426;6.972;2023-04-03T04:52:37;4.40;99.90
1878;DHT22;939;51.426;6.972;2023-04-03T04:55:05;4.50;99.90
1878;DHT22;939;51.426;6.972;2023-04-03T04:57:32;4.50;99.90
1878;DHT22;939;51.426;6.972;2023-04-03T05:00:00;4.50;99.90
1878;DHT22;939;51.426;6.972;2023-04-03T05:02:27;4.50;99.90
1878;DHT22;939;51.426;6.972;2023-04-03T05:04:55;4.50;99.90
1878;DHT22;939;51.426;6.972;2023-04-03T05:07:24;4.50;99.90
1878;DHT22;939;51.426;6.972;2023-04-03T05:09:51;4.50;99.90
1878;DHT22;939;51.426;6.972;2023-04-03T05:12:18;4.50;99.90
1878;DHT22;939;51.426;6.972;2023-04-03T05:14:45;4.40;99.90
1878;DHT22;939;51.426;6.972;2023-04-03T05:17:12;4.30;99.90
1878;DHT22;939;51.426;6.972;2023-04-03T05:19:39;4.30;99.90
1878;DHT22;939;51.426;6.972;2023-04-03T05:22:05;4.40;99.90
1878;DHT22;939;51.426;6.972;2023-04-03T05:24:35;4.40;99.90
1878;DHT22;939;51.426;6.972;2023-04-03T05:27:04;4.40;99.90
1878;DHT22;939;51.426;6.972;2023-04-03T05:29:31;4.40;99.90
1878;DHT22;939;51.426;6.972;2023-04-03T05:31:58;4.40;99.90
1878;DHT22;939;51.426;6.972;2023-04-03T05:34:25;4.40;99.90
1878;DHT22;939;51.426;6.972;2023-04-03T05:36:52;4.30;99.90
1878;DHT22;939;51.426;6.972;2023-04-03T05:39:19;4.40;99.90
1878;DHT22;939;51.426;6.972;2023-04-03T05:41:47;4.40;99.90
1878;DHT22;939;51.426;6.972;2023-04-03T05:44:14;4.40;99.90
1878;DHT22;939;51.426;6.972;2023-04-03T05:46:41;4.40;99.90
1878;DHT22;939;51.426;6.972;2023-04-03T05:49:08;4.40;99.90
1878;DHT22;939;51.426;6.972;2023-04-03T05:51:39;4.50;99.90
1878;DHT22;939;51.426;6.972;2023-04-03T06:06:22;4.50;99.90
1878;DHT22;939;51.426;6.972;2023-04-03T06:08:50;4.50;99.90
1878;DHT22;939;51.426;6.972;2023-04-03T07:09:40;5.60;99.90
1878;DHT22;939;51.426;6.972;2023-04-03T07:22:12;5.70;99.90
1878;DHT22;939;51.426;6.972;2023-04-03T07:25:25;5.70;99.90
1878;DHT22;939;51.426;6.972;2023-04-03T07:31:20;5.50;99.90
1878;DHT22;939;51.426;6.972;2023-04-03T07:33:52;5.50;99.90
1878;DHT22;939;51.426;6.972;2023-04-03T07:39:39;5.50;99.90
1878;DHT22;939;51.426;6.972;2023-04-03T07:52:47;5.90;99.90
1878;DHT22;939;51.426;6.972;2023-04-03T07:55:23;5.90;99.90
1878;DHT22;939;51.426;6.972;2023-04-03T07:57:57;6.00;99.90
1878;DHT22;939;51.426;6.972;2023-04-03T08:00:24;6.00;99.90
1878;DHT22;939;51.426;6.972;2023-04-03T08:02:52;6.00;99.90
1878;DHT22;939;51.426;6.972;2023-04-03T08:05:20;6.00;99.90
1878;DHT22;939;51.426;6.972;2023-04-03T08:07:49;6.20;99.90
1878;DHT22;939;51.426;6.972;2023-04-03T08:10:17;6.20;99.90
1878;DHT22;939;51.426;6.972;2023-04-03T08:12:46;6.30;99.90
1878;DHT22;939;51.426;6.972;2023-04-03T08:15:13;6.30;99.90
1878;DHT22;939;51.426;6.972;2023-04-03T08:17:46;6.40;99.90
1878;DHT22;939;51.426;6.972;2023-04-03T08:20:17;6.20;99.90
1878;DHT22;939;51.426;6.972;2023-04-03T08:22:45;6.30;99.90
1878;DHT22;939;51.426;6.972;2023-04-03T08:25:14;6.40;99.90
1878;DHT22;939;51.426;6.972;2023-04-03T08:27:46;6.60;99.90
1878;DHT22;939;51.426;6.972;2023-04-03T08:30:14;6.60;99.90
1878;DHT22;939;51.426;6.972;2023-04-03T08:32:41;6.70;99.90
1878;DHT22;939;51.426;6.972;2023-04-03T08:35:09;6.80;99.90
1878;DHT22;939;51.426;6.972;2023-04-03T08:37:36;6.80;99.90
1878;DHT22;939;51.426;6.972;2023-04-03T08:40:22;6.80;99.90
1878;DHT22;939;51.426;6.972;2023-04-03T08:43:01;7.00;99.90
1878;DHT22;939;51.426;6.972;2023-04-03T08:45:41;7.00;99.90
1878;DHT22;939;51.426;6.972;2023-04-03T08:48:13;7.10;99.90
1878;DHT22;939;51.426;6.972;2023-04-03T08:50:44;7.30;99.70
1878;DHT22;939;51.426;6.972;2023-04-03T08:53:15;7.70;98.40
1878;DHT22;939;51.426;6.972;2023-04-03T08:55:48;8.70;99.10
1878;DHT22;939;51.426;6.972;2023-04-03T08:58:19;9.60;94.90
1878;DHT22;939;51.426;6.972;2023-04-03T09:00:57;10.60;89.10
1878;DHT22;939;51.426;6.972;2023-04-03T09:03:29;11.90;79.50
1878;DHT22;939;51.426;6.972;2023-04-03T09:06:02;13.40;63.70
1878;DHT22;939;51.426;6.972;2023-04-03T09:08:39;14.70;55.10
1878;DHT22;939;51.426;6.972;2023-04-03T09:11:16;15.60;37.40
1878;DHT22;939;51.426;6.972;2023-04-03T09:13:51;16.50;34.40
1878;DHT22;939;51.426;6.972;2023-04-03T09:16:28;16.50;27.50
1878;DHT22;939;51.426;6.972;2023-04-03T09:19:05;15.90;27.90
1878;DHT22;939;51.426;6.972;2023-04-03T09:21:41;15.10;25.10
1878;DHT22;939;51.426;6.972;2023-04-03T09:24:14;14.00;25.40
1878;DHT22;939;51.426;6.972;2023-04-03T09:26:45;12.50;28.00
1878;DHT22;939;51.426;6.972;2023-04-03T09:29:18;12.30;31.00
1878;DHT22;939;51.426;6.972;2023-04-03T09:31:48;12.40;28.30
1878;DHT22;939;51.426;6.972;2023-04-03T09:34:20;13.20;28.90
1878;DHT22;939;51.426;6.972;2023-04-03T09:36:50;13.60;33.20
1878;DHT22;939;51.426;6.972;2023-04-03T09:39:19;14.00;29.10
1878;DHT22;939;51.426;6.972;2023-04-03T09:41:59;14.00;25.50
1878;DHT22;939;51.426;6.972;2023-04-03T09:44:29;15.00;24.10
1878;DHT22;939;51.426;6.972;2023-04-03T09:46:56;15.10;23.10
1878;DHT22;939;51.426;6.972;2023-04-03T09:49:23;15.20;21.90
1878;DHT22;939;51.426;6.972;2023-04-03T09:51:50;14.50;22.50
1878;DHT22;939;51.426;6.972;2023-04-03T09:54:32;13.60;19.60
1878;DHT22;939;51.426;6.972;2023-04-03T09:57:04;13.10;21.50
1878;DHT22;939;51.426;6.972;2023-04-03T09:59:31;13.20;21.00
1878;DHT22;939;51.426;6.972;2023-04-03T10:02:00;14.10;21.90
1878;DHT22;939;51.426;6.972;2023-04-03T10:04:38;15.30;20.50
1878;DHT22;939;51.426;6.972;2023-04-03T10:07:26;16.10;20.60
1878;DHT22;939;51.426;6.972;2023-04-03T10:09:56;15.50;19.80
1878;DHT22;939;51.426;6.972;2023-04-03T10:12:24;14.50;23.50
1878;DHT22;939;51.426;6.972;2023-04-03T10:14:56;14.70;20.20
1878;DHT22;939;51.426;6.972;2023-04-03T10:17:42;15.50;20.00
1878;DHT22;939;51.426;6.972;2023-04-03T10:20:25;16.60;20.10
1878;DHT22;939;51.426;6.972;2023-04-03T10:23:01;17.80;17.30
1878;DHT22;939;51.426;6.972;2023-04-03T10:25:32;18.70;16.00
1878;DHT22;939;51.426;6.972;2023-04-03T10:28:06;18.90;14.30
1878;DHT22;939;51.426;6.972;2023-04-03T10:30:42;20.20;13.30
1878;DHT22;939;51.426;6.972;2023-04-03T10:36:21;23.30;8.80
1878;DHT22;939;51.426;6.972;2023-04-03T10:38:57;25.40;6.70
1878;DHT22;939;51.426;6.972;2023-04-03T10:41:33;27.10;4.40
1878;DHT22;939;51.426;6.972;2023-04-03T10:44:09;29.30;3.10
1878;DHT22;939;51.426;6.972;2023-04-03T10:46:42;30.90;1.00
1878;DHT22;939;51.426;6.972;2023-04-03T10:49:25;29.30;1.00
1878;DHT22;939;51.426;6.972;2023-04-03T10:52:02;30.30;1.00
1878;DHT22;939;51.426;6.972;2023-04-03T10:54:36;31.30;1.00
1878;DHT22;939;51.426;6.972;2023-04-03T10:57:05;32.20;1.00
1878;DHT22;939;51.426;6.972;2023-04-03T10:59:38;32.50;1.00
1878;DHT22;939;51.426;6.972;2023-04-03T11:02:07;33.50;1.00
1878;DHT22;939;51.426;6.972;2023-04-03T11:04:39;33.70;1.00
1878;DHT22;939;51.426;6.972;2023-04-03T11:07:21;30.40;1.00
1878;DHT22;939;51.426;6.972;2023-04-03T11:09:50;30.40;1.00
1878;DHT22;939;51.426;6.972;2023-04-03T11:12:23;30.70;1.00
1878;DHT22;939;51.426;6.972;2023-04-03T11:14:55;29.30;1.00
1878;DHT22;939;51.426;6.972;2023-04-03T11:17:28;30.20;1.00
1878;DHT22;939;51.426;6.972;2023-04-03T11:20:03;30.70;1.00
1878;DHT22;939;51.426;6.972;2023-04-03T11:22:34;31.40;1.00
1878;DHT22;939;51.426;6.972;2023-04-03T11:25:06;32.00;1.00
1878;DHT22;939;51.426;6.972;2023-04-03T11:27:43;32.30;1.00
1878;DHT22;939;51.426;6.972;2023-04-03T11:30:19;33.40;1.00
1878;DHT22;939;51.426;6.972;2023-04-03T11:36:06;31.70;1.00
1878;DHT22;939;51.426;6.972;2023-04-03T11:38:36;31.00;1.00
1878;DHT22;939;51.426;6.972;2023-04-03T11:41:07;32.10;1.00
1878;DHT22;939;51.426;6.972;2023-04-03T11:43:40;29.20;1.00
1878;DHT22;939;51.426;6.972;2023-04-03T11:46:09;30.50;1.00
1878;DHT22;939;51.426;6.972;2023-04-03T11:48:45;31.30;1.00
1878;DHT22;939;51.426;6.972;2023-04-03T11:54:36;31.10;1.00
1878;DHT22;939;51.426;6.972;2023-04-03T12:09:24;30.00;1.00
1878;DHT22;939;51.426;6.972;2023-04-03T12:11:52;28.60;1.00
1878;DHT22;939;51.426;6.972;2023-04-03T12:14:24;26.40;1.00
1878;DHT22;939;51.426;6.972;2023-04-03T12:16:57;24.80;1.00
1878;DHT22;939;51.426;6.972;2023-04-03T12:19:36;23.70;1.00
1878;DHT22;939;51.426;6.972;2023-04-03T12:22:15;22.60;1.00
1878;DHT22;939;51.426;6.972;2023-04-03T12:24:46;22.30;1.00
1878;DHT22;939;51.426;6.972;2023-04-03T12:27:27;22.50;1.00
1878;DHT22;939;51.426;6.972;2023-04-03T12:30:13;21.60;1.00
1878;DHT22;939;51.426;6.972;2023-04-03T12:35:37;20.30;1.00
1878;DHT22;939;51.426;6.972;2023-04-03T12:38:30;20.50;1.00
1878;DHT22;939;51.426;6.972;2023-04-03T12:41:13;20.50;1.00
1878;DHT22;939;51.426;6.972;2023-04-03T12:47:21;20.10;1.00
1878;DHT22;939;51.426;6.972;2023-04-03T12:49:49;20.30;1.00
1878;DHT22;939;51.426;6.972;2023-04-03T12:52:30;19.80;1.00
1878;DHT22;939;51.426;6.972;2023-04-03T12:54:59;19.30;1.00
1878;DHT22;939;51.426;6.972;2023-04-03T12:57:29;18.40;1.00
1878;DHT22;939;51.426;6.972;2023-04-03T12:59:58;17.90;1.00
1878;DHT22;939;51.426;6.972;2023-04-03T13:02:27;17.70;1.00
1878;DHT22;939;51.426;6.972;2023-04-03T13:04:56;17.30;1.80
1878;DHT22;939;51.426;6.972;2023-04-03T13:07:28;17.10;1.00
1878;DHT22;939;51.426;6.972;2023-04-03T13:10:16;17.00;2.10
1878;DHT22;939;51.426;6.972;2023-04-03T13:12:48;17.20;2.90
1878;DHT22;939;51.426;6.972;2023-04-03T13:15:17;17.90;3.30
1878;DHT22;939;51.426;6.972;2023-04-03T13:17:46;19.80;1.50
1878;DHT22;939;51.426;6.972;2023-04-03T13:20:20;21.30;1.00
1878;DHT22;939;51.426;6.972;2023-04-03T13:22:53;23.00;1.00
1878;DHT22;939;51.426;6.972;2023-04-03T13:25:25;23.60;1.00
1878;DHT22;939;51.426;6.972;2023-04-03T13:27:54;22.60;1.00
1878;DHT22;939;51.426;6.972;2023-04-03T13:30:25;22.70;1.00
1878;DHT22;939;51.426;6.972;2023-04-03T13:32:53;22.90;1.00
1878;DHT22;939;51.426;6.972;2023-04-03T13:35:33;22.40;1.00
1878;DHT22;939;51.426;6.972;2023-04-03T13:38:06;21.30;1.00
1878;DHT22;939;51.426;6.972;2023-04-03T13:40:33;21.60;1.00
1878;DHT22;939;51.426;6.972;2023-04-03T13:43:03;21.80;1.00
1878;DHT22;939;51.426;6.972;2023-04-03T13:45:31;20.40;1.00
1878;DHT22;939;51.426;6.972;2023-04-03T13:48:16;20.30;1.00
1878;DHT22;939;51.426;6.972;2023-04-03T13:50:56;22.00;1.00
1878;DHT22;939;51.426;6.972;2023-04-03T13:53:25;23.30;1.00
1878;DHT22;939;51.426;6.972;2023-04-03T13:55:59;22.90;1.00
1878;DHT22;939;51.426;6.972;2023-04-03T13:58:33;21.50;1.00
1878;DHT22;939;51.426;6.972;2023-04-03T14:01:08;20.50;1.00
1878;DHT22;939;51.426;6.972;2023-04-03T14:03:43;20.00;1.00
1878;DHT22;939;51.426;6.972;2023-04-03T14:06:13;19.30;1.00
1878;DHT22;939;51.426;6.972;2023-04-03T14:08:47;18.70;1.00
1878;DHT22;939;51.426;6.972;2023-04-03T14:11:17;18.40;1.20
1878;DHT22;939;51.426;6.972;2023-04-03T14:13:46;18.30;1.30
1878;DHT22;939;51.426;6.972;2023-04-03T14:16:15;18.80;1.50
1878;DHT22;939;51.426;6.972;2023-04-03T14:18:43;20.10;1.00
1878;DHT22;939;51.426;6.972;2023-04-03T14:21:13;21.00;1.00
1878;DHT22;939;51.426;6.972;2023-04-03T14:23:40;21.40;1.00
1878;DHT22;939;51.426;6.972;2023-04-03T14:26:11;21.40;1.00
1878;DHT22;939;51.426;6.972;2023-04-03T14:28:39;20.50;1.00
1878;DHT22;939;51.426;6.972;2023-04-03T14:31:06;19.50;1.00
1878;DHT22;939;51.426;6.972;2023-04-03T14:33:33;18.70;1.00
1878;DHT22;939;51.426;6.972;2023-04-03T14:36:05;18.50;1.30
1878;DHT22;939;51.426;6.972;2023-04-03T14:38:32;17.90;1.20
1878;DHT22;939;51.426;6.972;2023-04-03T14:40:59;18.20;1.10
1878;DHT22;939;51.426;6.972;2023-04-03T14:43:27;18.70;1.50
1878;DHT22;939;51.426;6.972;2023-04-03T14:45:54;19.80;1.20
1878;DHT22;939;51.426;6.972;2023-04-03T14:48:23;19.80;1.00
1878;DHT22;939;51.426;6.972;2023-04-03T14:50:53;19.50;1.00
1878;DHT22;939;51.426;6.972;2023-04-03T14:53:21;19.10;1.00
1878;DHT22;939;51.426;6.972;2023-04-03T14:55:50;19.40;1.20
1878;DHT22;939;51.426;6.972;2023-04-03T14:58:19;19.70;1.00
1878;DHT22;939;51.426;6.972;2023-04-03T15:00:47;19.80;1.00
1878;DHT22;939;51.426;6.972;2023-04-03T15:03:15;19.10;1.00
1878;DHT22;939;51.426;6.972;2023-04-03T15:05:44;18.90;1.40
1878;DHT22;939;51.426;6.972;2023-04-03T15:08:19;19.80;1.10
1878;DHT22;939;51.426;6.972;2023-04-03T15:10:47;20.20;1.00
1878;DHT22;939;51.426;6.972;2023-04-03T15:13:14;19.70;1.00
1878;DHT22;939;51.426;6.972;2023-04-03T15:15:42;19.60;1.00
1878;DHT22;939;51.426;6.972;2023-04-03T15:18:15;18.40;1.00
1878;DHT22;939;51.426;6.972;2023-04-03T15:20:44;18.20;1.00
1878;DHT22;939;51.426;6.972;2023-04-03T15:23:12;16.90;1.30
1878;DHT22;939;51.426;6.972;2023-04-03T15:25:39;17.20;2.60
1878;DHT22;939;51.426;6.972;2023-04-03T15:28:08;17.30;2.10
1878;DHT22;939;51.426;6.972;2023-04-03T15:30:37;17.70;2.80
1878;DHT22;939;51.426;6.972;2023-04-03T15:33:05;18.30;2.10
1878;DHT22;939;51.426;6.972;2023-04-03T15:35:33;18.80;3.20
1878;DHT22;939;51.426;6.972;2023-04-03T15:38:02;19.40;1.40
1878;DHT22;939;51.426;6.972;2023-04-03T15:40:29;19.80;1.00
1878;DHT22;939;51.426;6.972;2023-04-03T15:42:59;19.30;1.00
1878;DHT22;939;51.426;6.972;2023-04-03T15:45:31;19.30;1.00
1878;DHT22;939;51.426;6.972;2023-04-03T15:48:00;19.10;1.00
1878;DHT22;939;51.426;6.972;2023-04-03T15:50:27;18.80;1.10
1878;DHT22;939;51.426;6.972;2023-04-03T15:52:57;18.50;1.90
1878;DHT22;939;51.426;6.972;2023-04-03T15:55:25;18.90;1.10
1878;DHT22;939;51.426;6.972;2023-04-03T15:58:21;19.40;1.00
1878;DHT22;939;51.426;6.972;2023-04-03T16:00:50;19.80;1.20
1878;DHT22;939;51.426;6.972;2023-04-03T16:03:19;20.10;1.10
1878;DHT22;939;51.426;6.972;2023-04-03T16:06:03;19.30;1.00
1878;DHT22;939;51.426;6.972;2023-04-03T16:14:32;18.30;1.00
1878;DHT22;939;51.426;6.972;2023-04-03T16:17:07;18.00;1.20
1878;DHT22;939;51.426;6.972;2023-04-03T16:19:45;18.20;1.40
1878;DHT22;939;51.426;6.972;2023-04-03T16:22:16;18.10;1.50
1878;DHT22;939;51.426;6.972;2023-04-03T16:24:43;17.90;1.50
1878;DHT22;939;51.426;6.972;2023-04-03T16:27:20;17.90;1.90
1878;DHT22;939;51.426;6.972;2023-04-03T16:29:52;17.90;2.80
1878;DHT22;939;51.426;6.972;2023-04-03T16:32:26;17.10;1.80
1878;DHT22;939;51.426;6.972;2023-04-03T16:35:04;17.10;2.30
1878;DHT22;939;51.426;6.972;2023-04-03T16:37:38;17.00;2.70
1878;DHT22;939;51.426;6.972;2023-04-03T16:40:13;16.30;3.10
1878;DHT22;939;51.426;6.972;2023-04-03T16:42:45;16.10;4.10
1878;DHT22;939;51.426;6.972;2023-04-03T16:45:21;16.10;3.00
1878;DHT22;939;51.426;6.972;2023-04-03T16:47:48;16.10;3.20
1878;DHT22;939;51.426;6.972;2023-04-03T16:50:19;15.80;3.30
1878;DHT22;939;51.426;6.972;2023-04-03T16:52:58;15.30;3.80
1878;DHT22;939;51.426;6.972;2023-04-03T16:55:56;15.20;4.20
1878;DHT22;939;51.426;6.972;2023-04-03T16:58:29;14.90;4.50
1878;DHT22;939;51.426;6.972;2023-04-03T17:00:57;14.40;5.50
1878;DHT22;939;51.426;6.972;2023-04-03T17:03:27;14.30;5.30
1878;DHT22;939;51.426;6.972;2023-04-03T17:05:54;14.00;5.80
1878;DHT22;939;51.426;6.972;2023-04-03T17:08:20;13.60;5.50
1878;DHT22;939;51.426;6.972;2023-04-03T17:10:49;13.40;5.60
1878;DHT22;939;51.426;6.972;2023-04-03T17:13:19;13.00;6.60
1878;DHT22;939;51.426;6.972;2023-04-03T17:15:46;12.90;6.30
1878;DHT22;939;51.426;6.972;2023-04-03T17:18:14;12.70;6.80
1878;DHT22;939;51.426;6.972;2023-04-03T17:20:41;12.50;7.30
1878;DHT22;939;51.426;6.972;2023-04-03T17:23:08;12.40;7.30
1878;DHT22;939;51.426;6.972;2023-04-03T17:25:35;12.30;7.70
1878;DHT22;939;51.426;6.972;2023-04-03T17:28:02;12.00;8.10
1878;DHT22;939;51.426;6.972;2023-04-03T17:30:28;11.80;9.30
1878;DHT22;939;51.426;6.972;2023-04-03T17:32:55;11.50;9.40
1878;DHT22;939;51.426;6.972;2023-04-03T17:35:23;11.50;9.60
1878;DHT22;939;51.426;6.972;2023-04-03T17:37:50;11.40;9.20
1878;DHT22;939;51.426;6.972;2023-04-03T17:40:17;11.20;8.90
1878;DHT22;939;51.426;6.972;2023-04-03T17:42:44;11.00;9.30
1878;DHT22;939;51.426;6.972;2023-04-03T17:45:11;10.90;9.20
1878;DHT22;939;51.426;6.972;2023-04-03T17:47:38;11.00;9.00
1878;DHT22;939;51.426;6.972;2023-04-03T17:50:06;11.00;8.80
1878;DHT22;939;51.426;6.972;2023-04-03T17:52:34;10.90;8.90
1878;DHT22;939;51.426;6.972;2023-04-03T17:55:01;10.90;9.40
1878;DHT22;939;51.426;6.972;2023-04-03T17:57:29;10.80;9.80
1878;DHT22;939;51.426;6.972;2023-04-03T17:59:56;10.60;10.40
1878;DHT22;939;51.426;6.972;2023-04-03T18:02:23;10.50;10.60
1878;DHT22;939;51.426;6.972;2023-04-03T18:04:50;10.50;10.50
1878;DHT22;939;51.426;6.972;2023-04-03T18:07:17;10.50;10.70
1878;DHT22;939;51.426;6.972;2023-04-03T18:09:46;10.40;11.30
1878;DHT22;939;51.426;6.972;2023-04-03T18:12:14;10.30;10.90
1878;DHT22;939;51.426;6.972;2023-04-03T18:14:40;10.30;11.40
1878;DHT22;939;51.426;6.972;2023-04-03T18:17:07;10.30;11.70
1878;DHT22;939;51.426;6.972;2023-04-03T18:19:36;10.30;11.60
1878;DHT22;939;51.426;6.972;2023-04-03T18:22:05;10.20;12.80
1878;DHT22;939;51.426;6.972;2023-04-03T18:24:34;10.10;12.70
1878;DHT22;939;51.426;6.972;2023-04-03T18:27:09;10.00;13.20
1878;DHT22;939;51.426;6.972;2023-04-03T18:29:37;10.00;12.80
1878;DHT22;939;51.426;6.972;2023-04-03T18:32:06;10.00;13.30
1878;DHT22;939;51.426;6.972;2023-04-03T18:34:35;10.00;13.70
1878;DHT22;939;51.426;6.972;2023-04-03T18:37:02;9.90;14.70
1878;DHT22;939;51.426;6.972;2023-04-03T18:39:30;9.90;15.00
1878;DHT22;939;51.426;6.972;2023-04-03T18:42:02;9.90;16.10
1878;DHT22;939;51.426;6.972;2023-04-03T18:44:32;9.90;15.40
1878;DHT22;939;51.426;6.972;2023-04-03T18:46:59;9.90;15.00
1878;DHT22;939;51.426;6.972;2023-04-03T18:49:28;9.70;16.00
1878;DHT22;939;51.426;6.972;2023-04-03T18:51:55;9.70;15.50
1878;DHT22;939;51.426;6.972;2023-04-03T18:54:22;9.70;15.40
1878;DHT22;939;51.426;6.972;2023-04-03T18:56:49;9.60;16.00
1878;DHT22;939;51.426;6.972;2023-04-03T18:59:16;9.60;15.60
1878;DHT22;939;51.426;6.972;2023-04-03T19:01:44;9.60;15.90
1878;DHT22;939;51.426;6.972;2023-04-03T19:04:11;9.50;16.80
1878;DHT22;939;51.426;6.972;2023-04-03T19:06:39;9.50;16.70
1878;DHT22;939;51.426;6.972;2023-04-03T19:09:07;9.50;16.60
1878;DHT22;939;51.426;6.972;2023-04-03T19:11:34;9.50;17.10